createdAt,value
2019-03-30T00:01:50.199Z,50.30
2019-03-30T00:04:18.978Z,47.87
2019-03-30T00:06:47.298Z,50.00
2019-03-30T00:09:15.689Z,48.73
2019-03-30T00:11:44.110Z,49.67
2019-03-30T00:14:12.430Z,49.97
2019-03-30T00:16:40.911Z,49.60
2019-03-30T00:19:09.403Z,50.40
2019-03-30T00:21:38.167Z,50.87
2019-03-30T00:24:06.546Z,49.10
2019-03-30T00:26:34.926Z,48.70
2019-03-30T00:29:03.313Z,48.57
2019-03-30T00:31:31.671Z,49.07
2019-03-30T00:34:00.086Z,49.63
2019-03-30T00:36:28.430Z,54.83
2019-03-30T00:38:56.808Z,51.30
2019-03-30T00:41:25.230Z,50.03
2019-03-30T00:43:53.528Z,52.37
2019-03-30T00:46:21.997Z,50.77
2019-03-30T00:48:50.471Z,52.23
2019-03-30T00:51:18.846Z,51.57
2019-03-30T00:53:47.249Z,51.57
2019-03-30T00:56:15.598Z,49.23
2019-03-30T00:58:43.990Z,51.37
2019-03-30T01:01:12.598Z,50.73
2019-03-30T01:03:41.428Z,52.03
2019-03-30T01:06:09.907Z,56.23
2019-03-30T01:08:38.271Z,53.47
2019-03-30T01:11:06.617Z,52.97
2019-03-30T01:13:35.027Z,52.50
2019-03-30T01:16:03.371Z,53.57
2019-03-30T01:18:32.242Z,53.73
2019-03-30T01:21:00.626Z,56.17
2019-03-30T01:23:29.021Z,54.87
2019-03-30T01:25:59.871Z,54.83
2019-03-30T01:28:28.304Z,54.30
2019-03-30T01:30:56.682Z,53.77
2019-03-30T01:33:25.028Z,51.50
2019-03-30T01:35:53.349Z,51.27
2019-03-30T01:38:21.691Z,53.33
2019-03-30T01:40:50.167Z,53.97
2019-03-30T01:43:18.510Z,50.90
2019-03-30T01:45:46.924Z,53.60
2019-03-30T01:51:36.684Z,53.43
2019-03-30T01:54:07.516Z,53.10
2019-03-30T01:56:35.892Z,52.27
2019-03-30T01:59:04.222Z,52.90
2019-03-30T02:01:32.600Z,51.77
2019-03-30T02:04:00.978Z,53.23
2019-03-30T02:06:29.329Z,51.63
2019-03-30T02:08:57.698Z,51.87
2019-03-30T02:11:26.053Z,52.83
2019-03-30T02:13:54.398Z,52.33
2019-03-30T02:16:22.847Z,53.67
2019-03-30T02:18:51.197Z,50.50
2019-03-30T02:21:55.627Z,50.40
2019-03-30T02:24:24.005Z,51.27
2019-03-30T02:26:52.404Z,48.80
2019-03-30T02:29:20.865Z,50.60
2019-03-30T02:31:49.249Z,50.57
2019-03-30T02:34:17.610Z,49.50
2019-03-30T02:36:45.917Z,47.60
2019-03-30T02:39:14.287Z,48.57
2019-03-30T02:41:42.658Z,47.93
2019-03-30T02:44:11.006Z,47.60
2019-03-30T02:46:39.390Z,45.77
2019-03-30T02:49:07.706Z,45.50
2019-03-30T02:51:36.139Z,45.13
2019-03-30T02:54:04.464Z,44.33
2019-03-30T02:56:32.858Z,43.43
2019-03-30T02:59:01.211Z,43.93
2019-03-30T03:01:29.601Z,45.50
2019-03-30T03:03:58.120Z,45.37
2019-03-30T03:06:26.594Z,49.60
2019-03-30T03:08:54.949Z,46.03
2019-03-30T03:11:23.315Z,45.87
2019-03-30T03:13:51.698Z,43.60
2019-03-30T03:16:20.113Z,46.03
2019-03-30T03:18:48.491Z,53.50
2019-03-30T03:21:16.858Z,52.63
2019-03-30T03:23:45.417Z,46.63
2019-03-30T03:26:13.813Z,44.63
2019-03-30T03:28:42.106Z,42.03
2019-03-30T03:31:10.761Z,44.60
2019-03-30T03:33:39.100Z,43.20
2019-03-30T03:36:07.552Z,41.40
2019-03-30T03:38:35.905Z,39.83
2019-03-30T03:41:04.277Z,40.80
2019-03-30T03:43:32.758Z,40.50
2019-03-30T03:46:01.119Z,39.17
2019-03-30T03:48:29.457Z,39.07
2019-03-30T03:51:00.308Z,40.03
2019-03-30T03:53:29.147Z,37.63
2019-03-30T03:55:58.273Z,37.40
2019-03-30T03:58:28.096Z,37.57
2019-03-30T04:00:58.042Z,36.87
2019-03-30T04:03:26.399Z,36.47
2019-03-30T04:05:56.222Z,36.67
2019-03-30T04:08:26.058Z,36.20
2019-03-30T04:10:54.988Z,35.73
2019-03-30T04:13:24.810Z,35.17
2019-03-30T04:15:53.169Z,34.53
2019-03-30T04:18:21.493Z,33.97
2019-03-30T04:20:49.838Z,36.40
2019-03-30T04:23:18.232Z,34.97
2019-03-30T04:25:47.785Z,34.63
2019-03-30T04:28:16.204Z,33.80
2019-03-30T04:30:44.607Z,35.33
2019-03-30T04:33:13.086Z,32.47
2019-03-30T04:35:41.429Z,34.60
2019-03-30T04:41:18.697Z,31.90
2019-03-30T04:43:47.073Z,33.50
2019-03-30T04:46:15.422Z,33.17
2019-03-30T04:48:43.878Z,34.83
2019-03-30T04:51:12.219Z,32.53
2019-03-30T04:53:43.322Z,35.17
2019-03-30T04:56:11.677Z,35.43
2019-03-30T04:58:40.001Z,37.03
2019-03-30T05:01:08.403Z,39.30
2019-03-30T05:03:36.779Z,42.40
2019-03-30T05:06:05.154Z,46.00
2019-03-30T05:08:33.483Z,42.17
2019-03-30T05:11:01.850Z,40.47
2019-03-30T05:13:30.161Z,40.43
2019-03-30T05:15:58.913Z,38.53
2019-03-30T05:18:27.331Z,37.13
2019-03-30T05:20:55.685Z,37.47
2019-03-30T05:23:24.093Z,36.47
2019-03-30T05:25:52.432Z,33.70
2019-03-30T05:28:20.828Z,33.23
2019-03-30T05:30:49.175Z,31.43
2019-03-30T05:33:18.423Z,28.70
2019-03-30T05:35:46.789Z,29.70
2019-03-30T05:38:15.137Z,28.80
2019-03-30T05:40:43.513Z,28.33
2019-03-30T05:43:11.839Z,27.10
2019-03-30T05:45:40.274Z,26.13
2019-03-30T05:48:08.775Z,25.90
2019-03-30T05:50:37.134Z,26.10
2019-03-30T05:53:05.495Z,24.67
2019-03-30T05:55:33.849Z,23.80
2019-03-30T05:58:02.303Z,24.37
2019-03-30T06:00:30.780Z,23.93
2019-03-30T06:02:59.186Z,24.33
2019-03-30T06:05:27.583Z,24.53
2019-03-30T06:07:55.983Z,24.67
2019-03-30T06:10:24.403Z,24.47
2019-03-30T06:12:52.740Z,25.10
2019-03-30T06:15:21.103Z,25.47
2019-03-30T06:17:49.469Z,25.47
2019-03-30T06:20:17.863Z,25.33
2019-03-30T06:22:46.218Z,25.20
2019-03-30T06:25:14.575Z,24.87
2019-03-30T06:27:42.912Z,28.43
2019-03-30T06:30:15.835Z,27.33
2019-03-30T06:32:44.712Z,28.03
2019-03-30T06:35:13.342Z,27.73
2019-03-30T06:37:41.753Z,24.93
2019-03-30T06:40:10.135Z,24.20
2019-03-30T06:42:41.556Z,25.53
2019-03-30T06:45:11.319Z,23.73
2019-03-30T06:47:39.753Z,25.80
2019-03-30T06:50:38.001Z,24.17
2019-03-30T06:53:07.237Z,25.77
2019-03-30T06:55:35.626Z,25.30
2019-03-30T06:58:05.038Z,25.00
2019-03-30T07:00:34.172Z,24.77
2019-03-30T07:03:04.203Z,23.70
2019-03-30T07:05:33.381Z,25.17
2019-03-30T07:08:02.216Z,24.53
2019-03-30T07:10:30.811Z,24.27
2019-03-30T07:13:00.671Z,23.07
2019-03-30T07:15:30.502Z,24.60
2019-03-30T07:18:00.351Z,23.37
2019-03-30T07:20:30.012Z,22.87
2019-03-30T07:23:11.101Z,22.47
2019-03-30T07:25:28.362Z,23.97
2019-03-30T07:27:57.188Z,21.90
2019-03-30T07:30:25.904Z,22.13
2019-03-30T07:32:54.869Z,20.27
2019-03-30T07:35:26.376Z,20.63
2019-03-30T07:37:56.026Z,19.60
2019-03-30T07:40:24.360Z,21.47
2019-03-30T07:42:52.780Z,20.30
2019-03-30T07:45:21.263Z,20.90
2019-03-30T07:47:49.804Z,21.23
2019-03-30T07:50:18.346Z,21.00
2019-03-30T07:52:46.850Z,19.60
2019-03-30T07:55:15.222Z,19.07
2019-03-30T07:57:43.751Z,19.17
2019-03-30T08:00:12.613Z,20.20
2019-03-30T08:02:41.008Z,19.67
2019-03-30T08:05:09.547Z,19.47
2019-03-30T08:07:37.963Z,19.73
2019-03-30T08:10:06.523Z,19.50
2019-03-30T08:15:44.463Z,19.03
2019-03-30T08:18:13.078Z,18.03
2019-03-30T08:20:41.612Z,18.17
2019-03-30T08:23:10.866Z,19.77
2019-03-30T08:26:30.457Z,19.70
2019-03-30T08:28:58.820Z,18.23
2019-03-30T08:31:27.190Z,18.00
2019-03-30T08:33:55.498Z,18.87
2019-03-30T08:36:23.914Z,17.97
2019-03-30T08:38:52.317Z,19.17
2019-03-30T08:41:35.951Z,18.63
2019-03-30T08:44:04.420Z,19.60
2019-03-30T08:49:42.214Z,17.90
2019-03-30T08:52:11.633Z,19.53
2019-03-30T08:54:40.620Z,19.07
2019-03-30T08:57:09.571Z,19.33
2019-03-30T08:59:37.926Z,19.70
2019-03-30T09:02:06.315Z,18.97
2019-03-30T09:04:34.712Z,18.17
2019-03-30T09:07:03.056Z,18.10
2019-03-30T09:10:04.458Z,18.43
2019-03-30T09:12:32.886Z,18.53
2019-03-30T09:15:01.283Z,19.63
2019-03-30T09:20:38.933Z,18.60
2019-03-30T09:23:08.566Z,19.23
2019-03-30T09:25:36.946Z,19.50
2019-03-30T09:28:05.419Z,18.33
2019-03-30T09:30:34.014Z,19.00
2019-03-30T09:33:02.368Z,18.63
2019-03-30T09:35:30.921Z,19.27
2019-03-30T09:37:59.561Z,19.07
2019-03-30T09:40:31.079Z,19.10
2019-03-30T09:42:59.601Z,19.13
2019-03-30T09:45:28.009Z,18.73
2019-03-30T09:47:56.349Z,20.10
2019-03-30T09:50:24.695Z,20.83
2019-03-30T09:52:53.082Z,19.50
2019-03-30T09:55:21.829Z,20.13
2019-03-30T09:57:50.191Z,19.70
2019-03-30T10:00:18.698Z,20.03
2019-03-30T10:02:47.051Z,19.97
2019-03-30T10:05:15.512Z,19.90
2019-03-30T10:07:43.958Z,18.60
2019-03-30T10:10:12.703Z,18.73
2019-03-30T10:12:41.034Z,17.30
2019-03-30T10:15:09.504Z,19.23
2019-03-30T10:17:37.859Z,18.67
2019-03-30T10:20:06.263Z,17.80
2019-03-30T10:22:34.624Z,18.63
2019-03-30T10:25:03.003Z,18.13
2019-03-30T10:27:31.349Z,18.07
2019-03-30T10:29:59.729Z,18.27
2019-03-30T10:32:28.497Z,18.63
2019-03-30T10:34:56.835Z,18.43
2019-03-30T10:37:25.245Z,18.67
2019-03-30T10:39:53.625Z,17.63
2019-03-30T10:42:22.009Z,20.33
2019-03-30T10:44:50.407Z,20.40
2019-03-30T10:47:18.782Z,19.93
2019-03-30T10:49:47.164Z,20.57
2019-03-30T10:52:15.509Z,20.27
2019-03-30T10:54:52.546Z,19.60
2019-03-30T10:57:13.989Z,21.73
2019-03-30T10:59:42.358Z,20.80
2019-03-30T11:02:10.697Z,21.30
2019-03-30T11:04:39.054Z,22.83
2019-03-30T11:07:07.749Z,23.67
2019-03-30T11:09:36.040Z,21.13
2019-03-30T11:12:04.358Z,21.63
2019-03-30T11:14:32.742Z,22.77
2019-03-30T11:17:01.079Z,23.03
2019-03-30T11:19:29.402Z,24.70
2019-03-30T11:21:57.775Z,24.00
2019-03-30T11:24:26.183Z,21.67
2019-03-30T11:26:54.566Z,23.40
2019-03-30T11:29:22.919Z,21.97
2019-03-30T11:31:51.355Z,21.67
2019-03-30T11:34:19.712Z,22.80
2019-03-30T11:36:48.119Z,21.33
2019-03-30T11:39:16.496Z,23.10
2019-03-30T11:41:44.882Z,21.27
2019-03-30T11:44:13.257Z,22.53
2019-03-30T11:46:41.641Z,22.33
2019-03-30T11:49:09.959Z,21.27
2019-03-30T11:51:38.392Z,20.20
2019-03-30T11:54:10.667Z,19.70
2019-03-30T11:56:41.226Z,17.20
2019-03-30T11:59:09.567Z,17.80
2019-03-30T12:01:37.993Z,14.97
2019-03-30T12:04:06.376Z,15.03
2019-03-30T12:06:34.763Z,17.47
2019-03-30T12:09:03.794Z,16.47
2019-03-30T12:11:32.141Z,17.00
2019-03-30T12:14:00.538Z,16.90
2019-03-30T12:16:28.938Z,18.53
2019-03-30T12:18:58.543Z,17.60
2019-03-30T12:21:27.589Z,17.50
2019-03-30T12:23:55.885Z,17.17
2019-03-30T12:26:24.318Z,15.63
2019-03-30T12:28:52.659Z,15.07
2019-03-30T12:31:21.352Z,15.63
2019-03-30T12:33:49.707Z,14.23
2019-03-30T12:36:18.025Z,13.93
2019-03-30T12:38:46.385Z,15.07
2019-03-30T12:41:14.853Z,14.73
2019-03-30T12:43:43.162Z,14.00
2019-03-30T12:46:11.481Z,14.13
2019-03-30T12:48:39.870Z,12.47
2019-03-30T12:51:08.150Z,12.47
2019-03-30T12:53:49.972Z,12.70
2019-03-30T12:56:12.063Z,12.30
2019-03-30T12:58:40.371Z,13.33
2019-03-30T13:01:08.716Z,12.47
2019-03-30T13:03:37.024Z,11.90
2019-03-30T13:06:05.387Z,11.47
2019-03-30T13:08:33.793Z,12.50
2019-03-30T13:11:04.284Z,17.53
2019-03-30T13:13:34.323Z,12.83
2019-03-30T13:16:02.797Z,12.10
2019-03-30T13:18:31.207Z,11.93
2019-03-30T13:20:59.634Z,11.20
2019-03-30T13:23:28.028Z,11.20
2019-03-30T13:26:03.365Z,12.03
2019-03-30T13:28:26.831Z,15.17
2019-03-30T13:30:55.157Z,11.20
2019-03-30T13:33:23.484Z,11.47
2019-03-30T13:35:51.841Z,12.07
2019-03-30T13:38:20.854Z,11.40
2019-03-30T13:40:49.245Z,10.87
2019-03-30T13:43:17.570Z,12.60
2019-03-30T13:45:45.891Z,10.80
2019-03-30T13:48:14.225Z,11.63
2019-03-30T13:50:42.641Z,10.80
2019-03-30T13:53:11.006Z,13.07
2019-03-30T13:55:39.346Z,13.23
2019-03-30T13:58:07.796Z,13.17
2019-03-30T14:00:36.208Z,12.17
2019-03-30T14:03:04.557Z,14.63
2019-03-30T14:05:32.936Z,11.27
2019-03-30T14:08:01.279Z,9.90
2019-03-30T14:10:29.620Z,10.53
2019-03-30T14:12:58.201Z,10.40
2019-03-30T14:15:26.584Z,11.03
2019-03-30T14:17:54.987Z,10.40
2019-03-30T14:20:23.588Z,11.53
2019-03-30T14:22:52.011Z,11.27
2019-03-30T14:25:20.386Z,10.70
2019-03-30T14:27:48.763Z,11.10
2019-03-30T14:30:18.226Z,12.37
2019-03-30T14:32:46.602Z,11.53
2019-03-30T14:35:15.155Z,11.33
2019-03-30T14:37:43.506Z,11.37
2019-03-30T14:40:11.973Z,10.80
2019-03-30T14:42:40.315Z,10.33
2019-03-30T14:45:08.931Z,10.23
2019-03-30T14:50:32.869Z,10.13
2019-03-30T14:53:01.221Z,10.97
2019-03-30T14:55:29.678Z,11.17
2019-03-30T14:57:58.104Z,14.93
2019-03-30T15:00:26.615Z,11.97
2019-03-30T15:02:55.164Z,11.07
2019-03-30T15:05:23.501Z,11.20
2019-03-30T15:08:10.975Z,11.17
2019-03-30T15:10:39.320Z,10.63
2019-03-30T15:13:07.687Z,9.83
2019-03-30T15:15:36.097Z,9.57
2019-03-30T15:18:04.596Z,9.27
2019-03-30T15:20:32.963Z,10.23
2019-03-30T15:23:28.003Z,9.67
2019-03-30T15:25:56.462Z,10.63
2019-03-30T15:28:24.923Z,11.73
2019-03-30T15:30:53.324Z,11.00
2019-03-30T15:33:21.627Z,11.90
2019-03-30T15:35:50.097Z,11.20
2019-03-30T15:38:18.440Z,10.70
2019-03-30T15:40:46.801Z,11.60
2019-03-30T15:43:15.399Z,11.50
2019-03-30T15:45:43.765Z,11.93
2019-03-30T15:48:12.178Z,11.40
2019-03-30T15:50:40.644Z,12.30
2019-03-30T15:53:09.046Z,12.37
2019-03-30T15:55:37.444Z,11.80
2019-03-30T15:58:05.825Z,11.80
2019-03-30T16:00:34.274Z,12.40
2019-03-30T16:03:35.463Z,13.97
2019-03-30T16:06:03.859Z,12.20
2019-03-30T16:08:32.397Z,10.60
2019-03-30T16:11:00.753Z,11.13
2019-03-30T16:13:29.293Z,11.10
2019-03-30T16:15:58.119Z,10.97
2019-03-30T16:18:26.975Z,10.90
2019-03-30T16:20:55.855Z,11.60
2019-03-30T16:23:24.214Z,11.03
2019-03-30T16:25:53.129Z,11.53
2019-03-30T16:28:21.904Z,11.80
2019-03-30T16:30:50.292Z,10.90
2019-03-30T16:33:19.241Z,11.20
2019-03-30T16:35:48.007Z,10.20
2019-03-30T16:38:16.952Z,15.17
2019-03-30T16:40:45.254Z,11.50
2019-03-30T16:43:14.246Z,11.43
2019-03-30T16:45:43.142Z,10.20
2019-03-30T16:48:14.626Z,10.87
2019-03-30T16:50:44.572Z,11.47
2019-03-30T16:53:13.238Z,12.33
2019-03-30T16:55:41.758Z,10.37
2019-03-30T16:58:10.180Z,10.07
2019-03-30T17:00:55.296Z,10.83
2019-03-30T17:03:09.970Z,10.20
2019-03-30T17:05:38.562Z,10.20
2019-03-30T17:08:07.305Z,12.50
2019-03-30T17:10:40.033Z,12.40
2019-03-30T17:13:06.951Z,12.20
2019-03-30T17:15:35.717Z,10.57
2019-03-30T17:18:04.447Z,13.17
2019-03-30T17:20:32.951Z,15.07
2019-03-30T17:23:04.090Z,13.37
2019-03-30T17:25:32.747Z,16.30
2019-03-30T17:28:01.178Z,14.17
2019-03-30T17:30:29.724Z,14.37
2019-03-30T17:32:58.240Z,15.90
2019-03-30T17:35:26.891Z,20.30
2019-03-30T17:37:55.412Z,27.13
2019-03-30T17:40:23.736Z,29.07
2019-03-30T17:42:52.387Z,32.20
2019-03-30T17:45:21.065Z,34.57
2019-03-30T17:47:49.775Z,37.43
2019-03-30T17:50:18.399Z,37.80
2019-03-30T17:52:46.835Z,37.47
2019-03-30T17:55:15.285Z,37.50
2019-03-30T17:57:43.790Z,36.50
2019-03-30T18:00:14.645Z,37.17
2019-03-30T18:02:43.190Z,37.73
2019-03-30T18:05:11.978Z,36.47
2019-03-30T18:07:40.352Z,35.73
2019-03-30T18:10:08.749Z,37.33
2019-03-30T18:12:37.231Z,34.67
2019-03-30T18:15:06.768Z,35.03
2019-03-30T18:17:35.342Z,36.23
2019-03-30T18:20:05.813Z,37.90
2019-03-30T18:22:34.451Z,40.47
2019-03-30T18:25:03.613Z,39.87
2019-03-30T18:27:32.774Z,40.20
2019-03-30T18:30:31.549Z,41.90
2019-03-30T18:33:00.332Z,42.03
2019-03-30T18:35:29.511Z,44.20
2019-03-30T18:37:58.494Z,43.87
2019-03-30T18:40:28.613Z,43.67
2019-03-30T18:42:57.698Z,39.80
2019-03-30T18:45:27.131Z,41.40
2019-03-30T18:47:57.559Z,42.53
2019-03-30T18:50:26.087Z,42.83
2019-03-30T18:52:54.763Z,46.63
2019-03-30T18:55:23.946Z,43.83
2019-03-30T18:57:53.130Z,45.33
2019-03-30T19:00:26.800Z,45.63
2019-03-30T19:02:55.278Z,46.40
2019-03-30T19:05:23.908Z,50.40
2019-03-30T19:07:53.311Z,50.00
2019-03-30T19:10:21.702Z,54.63
2019-03-30T19:12:50.087Z,49.83
2019-03-30T19:18:28.860Z,49.33
2019-03-30T19:21:36.253Z,49.63
2019-03-30T19:24:04.613Z,49.13
2019-03-30T19:26:33.081Z,49.13
2019-03-30T19:29:01.903Z,47.07
2019-03-30T19:31:30.736Z,46.93
2019-03-30T19:33:59.619Z,45.90
2019-03-30T19:36:28.603Z,48.03
2019-03-30T19:38:57.458Z,48.43
2019-03-30T19:41:26.263Z,47.23
2019-03-30T19:43:54.577Z,49.70
2019-03-30T19:46:26.457Z,50.60
2019-03-30T19:48:53.007Z,48.80
2019-03-30T19:51:21.510Z,49.40
2019-03-30T19:53:49.911Z,49.87
2019-03-30T20:03:21.069Z,51.53
2019-03-30T20:12:40.557Z,49.33
2019-03-30T20:14:50.972Z,50.07
2019-03-30T20:15:09.185Z,55.80
2019-03-30T20:17:37.634Z,52.43
2019-03-30T20:20:06.578Z,51.10
2019-03-30T20:22:34.983Z,49.10
2019-03-30T20:25:03.429Z,48.03
2019-03-30T20:27:32.957Z,47.53
2019-03-30T20:30:01.334Z,50.83
2019-03-30T20:32:29.750Z,48.70
2019-03-30T20:34:58.206Z,49.97
2019-03-30T20:37:30.875Z,52.67
2019-03-30T20:40:00.349Z,51.97
2019-03-30T20:42:28.896Z,55.57
2019-03-30T20:44:57.359Z,52.57
2019-03-30T20:47:25.808Z,52.33
2019-03-30T20:49:54.718Z,50.87
2019-03-30T20:52:23.642Z,50.03
2019-03-30T20:54:52.552Z,48.33
2019-03-30T20:57:20.882Z,47.67
2019-03-30T20:59:49.368Z,47.20
2019-03-30T21:02:18.596Z,46.93
2019-03-30T21:05:02.576Z,45.97
2019-03-30T21:07:30.985Z,47.57
2019-03-30T21:09:59.376Z,46.07
2019-03-30T21:12:27.867Z,47.83
2019-03-30T21:14:56.408Z,50.17
2019-03-30T21:17:24.972Z,49.70
2019-03-30T21:19:53.500Z,52.07
2019-03-30T21:22:21.997Z,53.10
2019-03-30T21:24:50.539Z,53.97
2019-03-30T21:30:40.877Z,53.53
2019-03-30T21:33:10.242Z,52.97
2019-03-30T21:35:38.682Z,52.07
2019-03-30T21:38:07.091Z,51.23
2019-03-30T21:40:36.894Z,51.10
2019-03-30T21:43:05.844Z,50.67
2019-03-30T21:45:35.281Z,51.73
2019-03-30T21:48:03.833Z,49.00
2019-03-30T21:50:32.426Z,49.00
2019-03-30T21:53:00.754Z,51.33
2019-03-30T21:55:29.412Z,52.90
2019-03-30T21:57:58.421Z,49.07
2019-03-30T22:00:34.508Z,48.67
2019-03-30T22:03:03.100Z,50.80
2019-03-30T22:05:31.573Z,51.47
2019-03-30T22:07:59.922Z,51.73
2019-03-30T22:10:28.325Z,53.53
2019-03-30T22:12:56.812Z,52.90
2019-03-30T22:15:27.634Z,51.20
2019-03-30T22:17:56.344Z,50.57
2019-03-30T22:20:25.037Z,51.60
2019-03-30T22:22:53.815Z,50.47
2019-03-30T22:25:22.346Z,49.43
2019-03-30T22:27:50.928Z,48.57
2019-03-30T22:30:25.076Z,48.07
2019-03-30T22:32:49.927Z,45.50
2019-03-30T22:35:18.854Z,50.03
2019-03-30T22:37:47.848Z,46.57
2019-03-30T22:40:16.674Z,48.33
2019-03-30T22:42:45.506Z,46.10
2019-03-30T22:45:14.264Z,46.57
2019-03-30T22:47:42.615Z,46.37
2019-03-30T22:50:11.763Z,46.07
2019-03-30T22:52:40.543Z,47.83
2019-03-30T22:55:09.149Z,47.07
2019-03-30T22:57:38.123Z,47.03
2019-03-30T23:00:08.055Z,45.97
2019-03-30T23:02:37.801Z,45.70
2019-03-30T23:05:06.509Z,44.17
2019-03-30T23:07:35.596Z,45.47
2019-03-30T23:10:04.425Z,46.07
2019-03-30T23:12:33.084Z,46.00
2019-03-30T23:15:01.640Z,46.93
2019-03-30T23:17:30.455Z,43.00
2019-03-30T23:19:59.080Z,42.47
2019-03-30T23:22:27.543Z,42.93
2019-03-30T23:24:56.009Z,43.43
2019-03-30T23:27:24.736Z,44.40
2019-03-30T23:29:53.514Z,42.87
2019-03-30T23:32:21.871Z,40.80
2019-03-30T23:34:50.739Z,41.40
2019-03-30T23:37:19.074Z,40.67
2019-03-30T23:39:47.439Z,41.33
2019-03-30T23:42:15.865Z,39.00
2019-03-30T23:44:44.687Z,42.13
2019-03-30T23:47:13.021Z,42.00
2019-03-30T23:49:41.520Z,39.63
2019-03-30T23:52:09.830Z,40.70
2019-03-30T23:54:38.195Z,37.33
2019-03-30T23:57:06.540Z,36.90
2019-03-30T23:59:34.942Z,35.17
